sensor_id;sensor_type;location;lat;lon;timestamp;P1;durP1;ratioP1;P2;durP2;ratioP2
12556;SDS011;6344;49.932;8.308;2023-05-10T00:00:53;1.43;;;1.33;;
12556;SDS011;6344;49.932;8.308;2023-05-10T00:03:20;1.53;;;1.30;;
12556;SDS011;6344;49.932;8.308;2023-05-10T00:05:46;1.93;;;1.30;;
12556;SDS011;6344;49.932;8.308;2023-05-10T00:08:13;1.50;;;1.40;;
12556;SDS011;6344;49.932;8.308;2023-05-10T00:10:40;2.30;;;1.37;;
12556;SDS011;6344;49.932;8.308;2023-05-10T00:13:06;1.93;;;1.40;;
12556;SDS011;6344;49.932;8.308;2023-05-10T00:15:33;1.60;;;1.50;;
12556;SDS011;6344;49.932;8.308;2023-05-10T00:18:01;3.53;;;1.40;;
12556;SDS011;6344;49.932;8.308;2023-05-10T00:20:28;1.67;;;1.57;;
12556;SDS011;6344;49.932;8.308;2023-05-10T00:22:55;1.40;;;1.30;;
12556;SDS011;6344;49.932;8.308;2023-05-10T00:25:21;1.30;;;1.20;;
12556;SDS011;6344;49.932;8.308;2023-05-10T00:27:48;1.30;;;1.20;;
12556;SDS011;6344;49.932;8.308;2023-05-10T00:30:15;1.30;;;1.20;;
12556;SDS011;6344;49.932;8.308;2023-05-10T00:32:42;1.33;;;1.23;;
12556;SDS011;6344;49.932;8.308;2023-05-10T00:35:10;4.23;;;1.30;;
12556;SDS011;6344;49.932;8.308;2023-05-10T00:37:37;1.50;;;1.40;;
12556;SDS011;6344;49.932;8.308;2023-05-10T00:40:04;1.37;;;1.27;;
12556;SDS011;6344;49.932;8.308;2023-05-10T00:42:32;1.40;;;1.20;;
12556;SDS011;6344;49.932;8.308;2023-05-10T00:44:58;4.30;;;1.50;;
12556;SDS011;6344;49.932;8.308;2023-05-10T00:47:25;1.50;;;1.40;;
12556;SDS011;6344;49.932;8.308;2023-05-10T00:49:52;1.20;;;1.10;;
12556;SDS011;6344;49.932;8.308;2023-05-10T00:52:20;1.50;;;1.40;;
12556;SDS011;6344;49.932;8.308;2023-05-10T00:54:48;1.20;;;1.10;;
12556;SDS011;6344;49.932;8.308;2023-05-10T00:57:15;1.20;;;1.10;;
12556;SDS011;6344;49.932;8.308;2023-05-10T00:59:41;1.30;;;1.20;;
12556;SDS011;6344;49.932;8.308;2023-05-10T01:02:08;2.13;;;1.10;;
12556;SDS011;6344;49.932;8.308;2023-05-10T01:04:35;1.40;;;1.30;;
12556;SDS011;6344;49.932;8.308;2023-05-10T01:07:02;1.37;;;1.03;;
12556;SDS011;6344;49.932;8.308;2023-05-10T01:09:30;1.20;;;1.10;;
12556;SDS011;6344;49.932;8.308;2023-05-10T01:11:57;1.47;;;1.20;;
12556;SDS011;6344;49.932;8.308;2023-05-10T01:14:25;1.33;;;1.23;;
12556;SDS011;6344;49.932;8.308;2023-05-10T01:16:53;5.40;;;3.10;;
12556;SDS011;6344;49.932;8.308;2023-05-10T01:19:22;1.80;;;1.33;;
12556;SDS011;6344;49.932;8.308;2023-05-10T01:21:53;1.30;;;1.20;;
12556;SDS011;6344;49.932;8.308;2023-05-10T01:24:46;1.50;;;1.40;;
12556;SDS011;6344;49.932;8.308;2023-05-10T01:33:31;1.20;;;1.10;;
12556;SDS011;6344;49.932;8.308;2023-05-10T01:36:02;1.20;;;1.10;;
12556;SDS011;6344;49.932;8.308;2023-05-10T01:38:37;2.17;;;1.13;;
12556;SDS011;6344;49.932;8.308;2023-05-10T01:41:09;3.10;;;1.30;;
12556;SDS011;6344;49.932;8.308;2023-05-10T01:43:42;1.50;;;1.40;;
12556;SDS011;6344;49.932;8.308;2023-05-10T01:46:16;2.60;;;1.20;;
12556;SDS011;6344;49.932;8.308;2023-05-10T01:48:48;1.63;;;1.53;;
12556;SDS011;6344;49.932;8.308;2023-05-10T01:51:19;1.93;;;1.30;;
12556;SDS011;6344;49.932;8.308;2023-05-10T01:53:50;1.53;;;1.20;;
12556;SDS011;6344;49.932;8.308;2023-05-10T01:56:21;2.20;;;1.40;;
12556;SDS011;6344;49.932;8.308;2023-05-10T01:58:51;2.20;;;2.10;;
12556;SDS011;6344;49.932;8.308;2023-05-10T02:01:19;1.43;;;1.33;;
12556;SDS011;6344;49.932;8.308;2023-05-10T02:03:49;1.17;;;1.07;;
12556;SDS011;6344;49.932;8.308;2023-05-10T02:06:16;1.20;;;1.10;;
12556;SDS011;6344;49.932;8.308;2023-05-10T02:08:46;4.03;;;1.40;;
12556;SDS011;6344;49.932;8.308;2023-05-10T02:11:14;1.40;;;1.30;;
12556;SDS011;6344;49.932;8.308;2023-05-10T02:13:41;1.37;;;1.27;;
12556;SDS011;6344;49.932;8.308;2023-05-10T02:16:10;1.60;;;1.50;;
12556;SDS011;6344;49.932;8.308;2023-05-10T02:18:38;1.87;;;1.27;;
12556;SDS011;6344;49.932;8.308;2023-05-10T02:21:07;1.40;;;1.30;;
12556;SDS011;6344;49.932;8.308;2023-05-10T02:23:35;2.17;;;1.27;;
12556;SDS011;6344;49.932;8.308;2023-05-10T02:26:03;1.63;;;1.53;;
12556;SDS011;6344;49.932;8.308;2023-05-10T02:28:31;2.00;;;1.40;;
12556;SDS011;6344;49.932;8.308;2023-05-10T02:30:59;1.43;;;1.30;;
12556;SDS011;6344;49.932;8.308;2023-05-10T02:33:26;2.03;;;1.47;;
12556;SDS011;6344;49.932;8.308;2023-05-10T02:35:54;2.23;;;1.63;;
12556;SDS011;6344;49.932;8.308;2023-05-10T02:38:23;2.33;;;1.37;;
12556;SDS011;6344;49.932;8.308;2023-05-10T02:40:51;2.00;;;1.53;;
12556;SDS011;6344;49.932;8.308;2023-05-10T02:43:19;1.50;;;1.40;;
12556;SDS011;6344;49.932;8.308;2023-05-10T02:45:50;2.73;;;2.53;;
12556;SDS011;6344;49.932;8.308;2023-05-10T02:48:16;2.07;;;1.60;;
12556;SDS011;6344;49.932;8.308;2023-05-10T02:50:44;3.37;;;1.50;;
12556;SDS011;6344;49.932;8.308;2023-05-10T02:53:18;1.60;;;1.50;;
12556;SDS011;6344;49.932;8.308;2023-05-10T02:55:50;1.80;;;1.70;;
12556;SDS011;6344;49.932;8.308;2023-05-10T02:58:18;1.90;;;1.60;;
12556;SDS011;6344;49.932;8.308;2023-05-10T03:00:45;1.60;;;1.50;;
12556;SDS011;6344;49.932;8.308;2023-05-10T03:03:12;2.20;;;1.57;;
12556;SDS011;6344;49.932;8.308;2023-05-10T03:05:39;3.60;;;1.60;;
12556;SDS011;6344;49.932;8.308;2023-05-10T03:08:05;2.07;;;1.97;;
12556;SDS011;6344;49.932;8.308;2023-05-10T03:10:32;1.70;;;1.60;;
12556;SDS011;6344;49.932;8.308;2023-05-10T03:13:10;3.63;;;1.50;;
12556;SDS011;6344;49.932;8.308;2023-05-10T03:15:47;1.80;;;1.70;;
12556;SDS011;6344;49.932;8.308;2023-05-10T03:18:22;2.20;;;2.10;;
12556;SDS011;6344;49.932;8.308;2023-05-10T03:20:55;2.13;;;2.03;;
12556;SDS011;6344;49.932;8.308;2023-05-10T03:23:34;1.70;;;1.60;;
12556;SDS011;6344;49.932;8.308;2023-05-10T03:26:02;1.90;;;1.80;;
12556;SDS011;6344;49.932;8.308;2023-05-10T03:28:31;2.17;;;1.97;;
12556;SDS011;6344;49.932;8.308;2023-05-10T03:30:59;1.80;;;1.70;;
12556;SDS011;6344;49.932;8.308;2023-05-10T03:33:27;3.37;;;1.70;;
12556;SDS011;6344;49.932;8.308;2023-05-10T03:35:53;2.47;;;2.13;;
12556;SDS011;6344;49.932;8.308;2023-05-10T03:38:20;2.47;;;2.27;;
12556;SDS011;6344;49.932;8.308;2023-05-10T03:40:47;2.57;;;1.77;;
12556;SDS011;6344;49.932;8.308;2023-05-10T03:43:13;1.90;;;1.80;;
12556;SDS011;6344;49.932;8.308;2023-05-10T03:45:41;4.80;;;2.03;;
12556;SDS011;6344;49.932;8.308;2023-05-10T03:48:08;2.30;;;1.80;;
12556;SDS011;6344;49.932;8.308;2023-05-10T03:50:34;2.50;;;2.30;;
12556;SDS011;6344;49.932;8.308;2023-05-10T03:53:01;2.30;;;2.20;;
12556;SDS011;6344;49.932;8.308;2023-05-10T03:55:28;2.60;;;2.50;;
12556;SDS011;6344;49.932;8.308;2023-05-10T03:57:54;3.90;;;2.33;;
12556;SDS011;6344;49.932;8.308;2023-05-10T04:00:21;2.83;;;2.60;;
12556;SDS011;6344;49.932;8.308;2023-05-10T04:02:49;7.83;;;2.60;;
12556;SDS011;6344;49.932;8.308;2023-05-10T04:05:15;2.43;;;2.27;;
12556;SDS011;6344;49.932;8.308;2023-05-10T04:07:42;3.10;;;2.70;;
12556;SDS011;6344;49.932;8.308;2023-05-10T04:10:09;2.50;;;2.30;;
12556;SDS011;6344;49.932;8.308;2023-05-10T04:12:37;2.63;;;2.40;;
12556;SDS011;6344;49.932;8.308;2023-05-10T04:15:03;2.80;;;2.60;;
12556;SDS011;6344;49.932;8.308;2023-05-10T04:17:31;3.30;;;2.43;;
12556;SDS011;6344;49.932;8.308;2023-05-10T04:19:59;2.77;;;2.57;;
12556;SDS011;6344;49.932;8.308;2023-05-10T04:22:26;3.07;;;2.77;;
12556;SDS011;6344;49.932;8.308;2023-05-10T04:24:54;2.80;;;2.33;;
12556;SDS011;6344;49.932;8.308;2023-05-10T04:27:20;4.53;;;2.93;;
12556;SDS011;6344;49.932;8.308;2023-05-10T04:29:47;2.93;;;2.73;;
12556;SDS011;6344;49.932;8.308;2023-05-10T04:32:14;3.50;;;3.20;;
12556;SDS011;6344;49.932;8.308;2023-05-10T04:34:42;3.07;;;2.53;;
12556;SDS011;6344;49.932;8.308;2023-05-10T04:37:10;3.90;;;2.97;;
12556;SDS011;6344;49.932;8.308;2023-05-10T04:39:36;2.93;;;2.73;;
12556;SDS011;6344;49.932;8.308;2023-05-10T04:42:03;2.50;;;2.40;;
12556;SDS011;6344;49.932;8.308;2023-05-10T04:44:30;3.43;;;3.13;;
12556;SDS011;6344;49.932;8.308;2023-05-10T04:46:57;6.00;;;3.47;;
12556;SDS011;6344;49.932;8.308;2023-05-10T04:49:24;3.20;;;3.00;;
12556;SDS011;6344;49.932;8.308;2023-05-10T04:51:50;2.87;;;2.67;;
12556;SDS011;6344;49.932;8.308;2023-05-10T04:54:18;3.90;;;3.60;;
12556;SDS011;6344;49.932;8.308;2023-05-10T04:56:45;4.17;;;3.70;;
12556;SDS011;6344;49.932;8.308;2023-05-10T04:59:11;3.70;;;3.40;;
12556;SDS011;6344;49.932;8.308;2023-05-10T05:01:38;3.97;;;3.50;;
12556;SDS011;6344;49.932;8.308;2023-05-10T05:04:05;4.87;;;3.40;;
12556;SDS011;6344;49.932;8.308;2023-05-10T05:06:32;3.97;;;3.63;;
12556;SDS011;6344;49.932;8.308;2023-05-10T05:08:59;5.10;;;4.60;;
12556;SDS011;6344;49.932;8.308;2023-05-10T05:11:27;6.50;;;4.23;;
12556;SDS011;6344;49.932;8.308;2023-05-10T05:13:53;4.70;;;3.67;;
12556;SDS011;6344;49.932;8.308;2023-05-10T05:16:20;3.70;;;3.30;;
12556;SDS011;6344;49.932;8.308;2023-05-10T05:18:46;4.90;;;3.57;;
12556;SDS011;6344;49.932;8.308;2023-05-10T05:21:13;4.53;;;4.00;;
12556;SDS011;6344;49.932;8.308;2023-05-10T05:23:41;3.40;;;3.20;;
12556;SDS011;6344;49.932;8.308;2023-05-10T05:26:08;4.43;;;4.03;;
12556;SDS011;6344;49.932;8.308;2023-05-10T05:28:35;5.63;;;3.93;;
12556;SDS011;6344;49.932;8.308;2023-05-10T05:31:03;3.87;;;3.57;;
12556;SDS011;6344;49.932;8.308;2023-05-10T05:33:29;4.83;;;3.97;;
12556;SDS011;6344;49.932;8.308;2023-05-10T05:35:56;4.27;;;3.87;;
12556;SDS011;6344;49.932;8.308;2023-05-10T05:38:22;4.40;;;4.00;;
12556;SDS011;6344;49.932;8.308;2023-05-10T05:40:49;4.27;;;3.63;;
12556;SDS011;6344;49.932;8.308;2023-05-10T05:43:16;7.20;;;4.27;;
12556;SDS011;6344;49.932;8.308;2023-05-10T05:45:44;4.10;;;3.70;;
12556;SDS011;6344;49.932;8.308;2023-05-10T05:48:10;3.80;;;3.40;;
12556;SDS011;6344;49.932;8.308;2023-05-10T05:50:37;4.23;;;3.83;;
12556;SDS011;6344;49.932;8.308;2023-05-10T05:53:03;4.03;;;3.73;;
12556;SDS011;6344;49.932;8.308;2023-05-10T05:55:30;6.07;;;4.37;;
12556;SDS011;6344;49.932;8.308;2023-05-10T05:57:57;4.93;;;4.00;;
12556;SDS011;6344;49.932;8.308;2023-05-10T06:00:24;3.93;;;3.63;;
12556;SDS011;6344;49.932;8.308;2023-05-10T06:02:52;6.20;;;3.90;;
12556;SDS011;6344;49.932;8.308;2023-05-10T06:05:18;3.93;;;3.33;;
12556;SDS011;6344;49.932;8.308;2023-05-10T06:07:46;3.30;;;3.00;;
12556;SDS011;6344;49.932;8.308;2023-05-10T06:10:12;3.90;;;3.60;;
12556;SDS011;6344;49.932;8.308;2023-05-10T06:12:39;4.03;;;3.50;;
12556;SDS011;6344;49.932;8.308;2023-05-10T06:15:06;6.60;;;4.20;;
12556;SDS011;6344;49.932;8.308;2023-05-10T06:17:33;5.50;;;3.90;;
12556;SDS011;6344;49.932;8.308;2023-05-10T06:20:01;5.47;;;3.60;;
12556;SDS011;6344;49.932;8.308;2023-05-10T06:22:28;3.93;;;3.50;;
12556;SDS011;6344;49.932;8.308;2023-05-10T06:24:55;4.40;;;3.60;;
12556;SDS011;6344;49.932;8.308;2023-05-10T06:27:21;3.87;;;3.40;;
12556;SDS011;6344;49.932;8.308;2023-05-10T06:29:48;3.80;;;3.50;;
12556;SDS011;6344;49.932;8.308;2023-05-10T06:32:14;3.07;;;2.87;;
12556;SDS011;6344;49.932;8.308;2023-05-10T06:34:41;3.13;;;2.93;;
12556;SDS011;6344;49.932;8.308;2023-05-10T06:37:10;3.50;;;3.10;;
12556;SDS011;6344;49.932;8.308;2023-05-10T06:39:36;5.30;;;3.70;;
12556;SDS011;6344;49.932;8.308;2023-05-10T06:42:03;5.60;;;3.90;;
12556;SDS011;6344;49.932;8.308;2023-05-10T06:44:30;4.90;;;3.83;;
12556;SDS011;6344;49.932;8.308;2023-05-10T06:46:57;4.83;;;3.07;;
12556;SDS011;6344;49.932;8.308;2023-05-10T06:49:23;3.73;;;3.43;;
12556;SDS011;6344;49.932;8.308;2023-05-10T06:51:50;3.17;;;2.90;;
12556;SDS011;6344;49.932;8.308;2023-05-10T06:54:18;2.93;;;2.73;;
12556;SDS011;6344;49.932;8.308;2023-05-10T06:56:45;3.13;;;2.90;;
12556;SDS011;6344;49.932;8.308;2023-05-10T06:59:11;2.90;;;2.50;;
12556;SDS011;6344;49.932;8.308;2023-05-10T07:01:39;4.40;;;3.90;;
12556;SDS011;6344;49.932;8.308;2023-05-10T07:04:06;3.50;;;3.20;;
12556;SDS011;6344;49.932;8.308;2023-05-10T07:06:33;4.00;;;3.70;;
12556;SDS011;6344;49.932;8.308;2023-05-10T07:08:59;4.73;;;3.10;;
12556;SDS011;6344;49.932;8.308;2023-05-10T07:11:27;3.20;;;2.70;;
12556;SDS011;6344;49.932;8.308;2023-05-10T07:13:54;3.10;;;2.90;;
12556;SDS011;6344;49.932;8.308;2023-05-10T07:16:20;3.17;;;2.97;;
12556;SDS011;6344;49.932;8.308;2023-05-10T07:18:47;3.23;;;2.93;;
12556;SDS011;6344;49.932;8.308;2023-05-10T07:21:15;3.50;;;3.20;;
12556;SDS011;6344;49.932;8.308;2023-05-10T07:23:41;3.37;;;3.07;;
12556;SDS011;6344;49.932;8.308;2023-05-10T07:26:08;4.40;;;2.93;;
12556;SDS011;6344;49.932;8.308;2023-05-10T07:28:36;4.27;;;3.13;;
12556;SDS011;6344;49.932;8.308;2023-05-10T07:31:04;5.03;;;2.80;;
12556;SDS011;6344;49.932;8.308;2023-05-10T07:33:30;3.47;;;2.80;;
12556;SDS011;6344;49.932;8.308;2023-05-10T07:35:57;2.80;;;2.40;;
12556;SDS011;6344;49.932;8.308;2023-05-10T07:38:23;3.13;;;2.90;;
12556;SDS011;6344;49.932;8.308;2023-05-10T07:40:50;3.40;;;2.60;;
12556;SDS011;6344;49.932;8.308;2023-05-10T07:43:17;3.00;;;2.80;;
12556;SDS011;6344;49.932;8.308;2023-05-10T07:45:45;3.70;;;3.50;;
12556;SDS011;6344;49.932;8.308;2023-05-10T07:48:11;3.87;;;3.47;;
12556;SDS011;6344;49.932;8.308;2023-05-10T07:50:38;7.13;;;3.10;;
12556;SDS011;6344;49.932;8.308;2023-05-10T07:53:05;3.63;;;3.33;;
12556;SDS011;6344;49.932;8.308;2023-05-10T07:55:31;3.27;;;2.80;;
12556;SDS011;6344;49.932;8.308;2023-05-10T07:57:58;3.27;;;2.60;;
12556;SDS011;6344;49.932;8.308;2023-05-10T08:00:26;5.73;;;3.33;;
12556;SDS011;6344;49.932;8.308;2023-05-10T08:02:54;7.80;;;3.27;;
12556;SDS011;6344;49.932;8.308;2023-05-10T08:05:20;3.50;;;3.20;;
12556;SDS011;6344;49.932;8.308;2023-05-10T08:07:47;5.50;;;3.30;;
12556;SDS011;6344;49.932;8.308;2023-05-10T08:10:13;5.83;;;2.93;;
12556;SDS011;6344;49.932;8.308;2023-05-10T08:12:40;3.33;;;3.00;;
12556;SDS011;6344;49.932;8.308;2023-05-10T08:15:07;3.57;;;3.27;;
12556;SDS011;6344;49.932;8.308;2023-05-10T08:17:35;2.67;;;2.47;;
12556;SDS011;6344;49.932;8.308;2023-05-10T08:20:03;9.20;;;3.63;;
12556;SDS011;6344;49.932;8.308;2023-05-10T08:22:30;3.97;;;2.50;;
12556;SDS011;6344;49.932;8.308;2023-05-10T08:24:56;3.33;;;2.67;;
12556;SDS011;6344;49.932;8.308;2023-05-10T08:27:23;2.57;;;2.37;;
12556;SDS011;6344;49.932;8.308;2023-05-10T08:29:50;2.73;;;2.53;;
12556;SDS011;6344;49.932;8.308;2023-05-10T08:32:16;3.87;;;2.13;;
12556;SDS011;6344;49.932;8.308;2023-05-10T08:34:43;3.20;;;2.20;;
12556;SDS011;6344;49.932;8.308;2023-05-10T08:37:11;3.10;;;2.80;;
12556;SDS011;6344;49.932;8.308;2023-05-10T08:39:38;2.83;;;2.40;;
12556;SDS011;6344;49.932;8.308;2023-05-10T08:42:05;2.80;;;2.23;;
12556;SDS011;6344;49.932;8.308;2023-05-10T08:44:34;2.47;;;2.00;;
12556;SDS011;6344;49.932;8.308;2023-05-10T08:47:02;2.40;;;2.17;;
12556;SDS011;6344;49.932;8.308;2023-05-10T08:49:31;2.33;;;2.13;;
12556;SDS011;6344;49.932;8.308;2023-05-10T08:51:59;2.23;;;2.13;;
12556;SDS011;6344;49.932;8.308;2023-05-10T08:54:31;2.40;;;2.20;;
12556;SDS011;6344;49.932;8.308;2023-05-10T08:56:57;2.20;;;1.93;;
12556;SDS011;6344;49.932;8.308;2023-05-10T08:59:24;2.17;;;1.97;;
12556;SDS011;6344;49.932;8.308;2023-05-10T09:01:51;2.00;;;1.80;;
12556;SDS011;6344;49.932;8.308;2023-05-10T09:04:20;2.17;;;1.87;;
12556;SDS011;6344;49.932;8.308;2023-05-10T09:06:47;2.77;;;1.70;;
12556;SDS011;6344;49.932;8.308;2023-05-10T09:09:14;3.80;;;2.10;;
12556;SDS011;6344;49.932;8.308;2023-05-10T09:11:42;1.30;;;1.20;;
12556;SDS011;6344;49.932;8.308;2023-05-10T09:14:10;2.73;;;1.60;;
12556;SDS011;6344;49.932;8.308;2023-05-10T09:16:38;3.10;;;1.30;;
12556;SDS011;6344;49.932;8.308;2023-05-10T09:19:05;1.50;;;1.40;;
12556;SDS011;6344;49.932;8.308;2023-05-10T09:21:33;2.10;;;1.50;;
12556;SDS011;6344;49.932;8.308;2023-05-10T09:24:02;2.30;;;1.60;;
12556;SDS011;6344;49.932;8.308;2023-05-10T09:26:29;2.13;;;1.50;;
12556;SDS011;6344;49.932;8.308;2023-05-10T09:28:58;2.43;;;1.33;;
12556;SDS011;6344;49.932;8.308;2023-05-10T09:31:42;1.27;;;1.17;;
12556;SDS011;6344;49.932;8.308;2023-05-10T09:34:11;1.30;;;1.20;;
12556;SDS011;6344;49.932;8.308;2023-05-10T09:36:49;1.67;;;1.57;;
12556;SDS011;6344;49.932;8.308;2023-05-10T09:39:17;1.50;;;1.40;;
12556;SDS011;6344;49.932;8.308;2023-05-10T09:41:44;2.13;;;1.30;;
12556;SDS011;6344;49.932;8.308;2023-05-10T09:44:14;1.70;;;1.60;;
12556;SDS011;6344;49.932;8.308;2023-05-10T09:46:48;1.50;;;1.40;;
12556;SDS011;6344;49.932;8.308;2023-05-10T09:49:15;1.40;;;1.30;;
12556;SDS011;6344;49.932;8.308;2023-05-10T09:51:41;3.93;;;1.33;;
12556;SDS011;6344;49.932;8.308;2023-05-10T09:54:09;1.53;;;1.40;;
12556;SDS011;6344;49.932;8.308;2023-05-10T09:56:37;2.27;;;1.17;;
12556;SDS011;6344;49.932;8.308;2023-05-10T09:59:05;1.70;;;1.60;;
12556;SDS011;6344;49.932;8.308;2023-05-10T10:01:34;3.80;;;1.30;;
12556;SDS011;6344;49.932;8.308;2023-05-10T10:04:02;2.47;;;1.30;;
12556;SDS011;6344;49.932;8.308;2023-05-10T10:06:34;1.30;;;1.20;;
12556;SDS011;6344;49.932;8.308;2023-05-10T10:09:01;1.50;;;1.40;;
12556;SDS011;6344;49.932;8.308;2023-05-10T10:11:28;4.07;;;1.30;;
12556;SDS011;6344;49.932;8.308;2023-05-10T10:13:55;1.77;;;1.67;;
12556;SDS011;6344;49.932;8.308;2023-05-10T10:16:21;2.73;;;1.50;;
12556;SDS011;6344;49.932;8.308;2023-05-10T10:18:50;1.93;;;1.40;;
12556;SDS011;6344;49.932;8.308;2023-05-10T10:21:17;2.43;;;1.30;;
12556;SDS011;6344;49.932;8.308;2023-05-10T10:23:44;1.60;;;1.30;;
12556;SDS011;6344;49.932;8.308;2023-05-10T10:26:11;2.50;;;1.67;;
12556;SDS011;6344;49.932;8.308;2023-05-10T10:28:40;2.40;;;1.33;;
12556;SDS011;6344;49.932;8.308;2023-05-10T10:31:17;1.50;;;1.40;;
12556;SDS011;6344;49.932;8.308;2023-05-10T10:33:58;1.57;;;1.47;;
12556;SDS011;6344;49.932;8.308;2023-05-10T10:36:27;1.53;;;1.43;;
12556;SDS011;6344;49.932;8.308;2023-05-10T10:38:56;1.63;;;1.53;;
12556;SDS011;6344;49.932;8.308;2023-05-10T10:41:29;4.07;;;1.80;;
12556;SDS011;6344;49.932;8.308;2023-05-10T10:44:22;1.77;;;1.67;;
12556;SDS011;6344;49.932;8.308;2023-05-10T10:46:59;1.70;;;1.60;;
12556;SDS011;6344;49.932;8.308;2023-05-10T10:49:30;1.67;;;1.57;;
12556;SDS011;6344;49.932;8.308;2023-05-10T10:52:17;1.87;;;1.77;;
12556;SDS011;6344;49.932;8.308;2023-05-10T10:54:53;2.10;;;1.77;;
12556;SDS011;6344;49.932;8.308;2023-05-10T10:57:24;4.03;;;1.63;;
12556;SDS011;6344;49.932;8.308;2023-05-10T10:59:53;2.13;;;1.50;;
12556;SDS011;6344;49.932;8.308;2023-05-10T11:02:47;2.30;;;1.60;;
12556;SDS011;6344;49.932;8.308;2023-05-10T11:05:26;1.33;;;1.23;;
12556;SDS011;6344;49.932;8.308;2023-05-10T11:08:07;1.80;;;1.70;;
12556;SDS011;6344;49.932;8.308;2023-05-10T11:10:39;1.47;;;1.17;;
12556;SDS011;6344;49.932;8.308;2023-05-10T11:13:08;1.40;;;1.23;;
12556;SDS011;6344;49.932;8.308;2023-05-10T11:15:36;1.63;;;1.30;;
12556;SDS011;6344;49.932;8.308;2023-05-10T11:18:16;3.40;;;1.30;;
12556;SDS011;6344;49.932;8.308;2023-05-10T11:20:46;1.30;;;1.20;;
12556;SDS011;6344;49.932;8.308;2023-05-10T11:23:16;1.90;;;1.20;;
12556;SDS011;6344;49.932;8.308;2023-05-10T11:25:44;1.50;;;1.40;;
12556;SDS011;6344;49.932;8.308;2023-05-10T11:28:11;1.37;;;1.27;;
12556;SDS011;6344;49.932;8.308;2023-05-10T11:30:39;1.30;;;1.20;;
12556;SDS011;6344;49.932;8.308;2023-05-10T11:33:06;1.40;;;1.30;;
12556;SDS011;6344;49.932;8.308;2023-05-10T11:35:37;2.00;;;1.37;;
12556;SDS011;6344;49.932;8.308;2023-05-10T11:38:06;1.50;;;1.40;;
12556;SDS011;6344;49.932;8.308;2023-05-10T11:40:33;1.57;;;1.47;;
12556;SDS011;6344;49.932;8.308;2023-05-10T11:43:00;1.50;;;1.40;;
12556;SDS011;6344;49.932;8.308;2023-05-10T11:45:27;1.33;;;1.23;;
12556;SDS011;6344;49.932;8.308;2023-05-10T11:47:56;5.20;;;1.57;;
12556;SDS011;6344;49.932;8.308;2023-05-10T11:50:23;1.43;;;1.33;;
12556;SDS011;6344;49.932;8.308;2023-05-10T11:52:51;1.23;;;0.97;;
12556;SDS011;6344;49.932;8.308;2023-05-10T11:55:19;2.03;;;1.40;;
12556;SDS011;6344;49.932;8.308;2023-05-10T11:57:46;1.43;;;1.33;;
12556;SDS011;6344;49.932;8.308;2023-05-10T12:00:12;1.30;;;1.20;;
12556;SDS011;6344;49.932;8.308;2023-05-10T12:02:40;1.50;;;1.40;;
12556;SDS011;6344;49.932;8.308;2023-05-10T12:05:07;4.50;;;1.60;;
12556;SDS011;6344;49.932;8.308;2023-05-10T12:07:34;2.17;;;1.60;;
12556;SDS011;6344;49.932;8.308;2023-05-10T12:10:08;3.50;;;1.70;;
12556;SDS011;6344;49.932;8.308;2023-05-10T12:12:40;2.00;;;1.67;;
12556;SDS011;6344;49.932;8.308;2023-05-10T12:15:11;3.40;;;1.67;;
12556;SDS011;6344;49.932;8.308;2023-05-10T12:17:43;2.43;;;1.37;;
12556;SDS011;6344;49.932;8.308;2023-05-10T12:20:13;1.63;;;1.53;;
12556;SDS011;6344;49.932;8.308;2023-05-10T12:22:44;1.70;;;1.60;;
12556;SDS011;6344;49.932;8.308;2023-05-10T12:25:11;2.80;;;1.50;;
12556;SDS011;6344;49.932;8.308;2023-05-10T12:27:38;1.77;;;1.60;;
12556;SDS011;6344;49.932;8.308;2023-05-10T12:30:07;1.73;;;1.63;;
12556;SDS011;6344;49.932;8.308;2023-05-10T12:32:37;3.40;;;1.30;;
12556;SDS011;6344;49.932;8.308;2023-05-10T12:35:05;2.40;;;1.50;;
12556;SDS011;6344;49.932;8.308;2023-05-10T12:37:32;1.40;;;1.30;;
12556;SDS011;6344;49.932;8.308;2023-05-10T12:40:01;1.60;;;1.33;;
12556;SDS011;6344;49.932;8.308;2023-05-10T12:42:29;2.60;;;1.53;;
12556;SDS011;6344;49.932;8.308;2023-05-10T12:44:56;2.40;;;1.20;;
12556;SDS011;6344;49.932;8.308;2023-05-10T12:47:24;1.70;;;1.60;;
12556;SDS011;6344;49.932;8.308;2023-05-10T12:49:51;2.07;;;1.70;;
12556;SDS011;6344;49.932;8.308;2023-05-10T12:52:18;2.60;;;1.60;;
12556;SDS011;6344;49.932;8.308;2023-05-10T12:54:45;2.33;;;1.40;;
12556;SDS011;6344;49.932;8.308;2023-05-10T12:57:12;2.00;;;1.90;;
12556;SDS011;6344;49.932;8.308;2023-05-10T12:59:39;1.90;;;1.80;;
12556;SDS011;6344;49.932;8.308;2023-05-10T13:02:06;1.70;;;1.60;;
12556;SDS011;6344;49.932;8.308;2023-05-10T13:04:34;3.07;;;1.60;;
12556;SDS011;6344;49.932;8.308;2023-05-10T13:07:02;1.80;;;1.70;;
12556;SDS011;6344;49.932;8.308;2023-05-10T13:09:29;3.53;;;1.90;;
12556;SDS011;6344;49.932;8.308;2023-05-10T13:11:55;2.83;;;1.77;;
12556;SDS011;6344;49.932;8.308;2023-05-10T13:14:22;2.07;;;1.70;;
12556;SDS011;6344;49.932;8.308;2023-05-10T13:16:48;2.20;;;1.60;;
12556;SDS011;6344;49.932;8.308;2023-05-10T13:19:15;2.30;;;1.77;;
12556;SDS011;6344;49.932;8.308;2023-05-10T13:21:43;2.07;;;1.70;;
12556;SDS011;6344;49.932;8.308;2023-05-10T13:24:10;2.30;;;1.87;;
12556;SDS011;6344;49.932;8.308;2023-05-10T13:26:38;2.17;;;1.60;;
12556;SDS011;6344;49.932;8.308;2023-05-10T13:29:05;1.93;;;1.80;;
12556;SDS011;6344;49.932;8.308;2023-05-10T13:31:33;1.60;;;1.50;;
12556;SDS011;6344;49.932;8.308;2023-05-10T13:34:00;1.70;;;1.60;;
12556;SDS011;6344;49.932;8.308;2023-05-10T13:36:27;1.90;;;1.63;;
12556;SDS011;6344;49.932;8.308;2023-05-10T13:38:55;1.83;;;1.73;;
12556;SDS011;6344;49.932;8.308;2023-05-10T13:41:21;2.07;;;1.50;;
12556;SDS011;6344;49.932;8.308;2023-05-10T13:43:48;1.90;;;1.47;;
12556;SDS011;6344;49.932;8.308;2023-05-10T13:46:15;1.80;;;1.70;;
12556;SDS011;6344;49.932;8.308;2023-05-10T13:48:41;1.77;;;1.60;;
12556;SDS011;6344;49.932;8.308;2023-05-10T13:51:08;2.03;;;1.40;;
12556;SDS011;6344;49.932;8.308;2023-05-10T13:53:34;1.70;;;1.60;;
12556;SDS011;6344;49.932;8.308;2023-05-10T13:56:02;2.90;;;1.93;;
12556;SDS011;6344;49.932;8.308;2023-05-10T13:58:29;1.60;;;1.50;;
12556;SDS011;6344;49.932;8.308;2023-05-10T14:00:56;2.47;;;1.70;;
12556;SDS011;6344;49.932;8.308;2023-05-10T14:09:58;1.97;;;1.70;;
12556;SDS011;6344;49.932;8.308;2023-05-10T14:12:26;3.37;;;1.97;;
12556;SDS011;6344;49.932;8.308;2023-05-10T14:14:52;2.43;;;1.63;;
12556;SDS011;6344;49.932;8.308;2023-05-10T14:17:19;2.43;;;1.70;;
12556;SDS011;6344;49.932;8.308;2023-05-10T14:19:47;2.17;;;1.63;;
12556;SDS011;6344;49.932;8.308;2023-05-10T14:22:13;1.80;;;1.70;;
12556;SDS011;6344;49.932;8.308;2023-05-10T14:24:40;1.93;;;1.73;;
12556;SDS011;6344;49.932;8.308;2023-05-10T14:27:08;2.17;;;1.77;;
12556;SDS011;6344;49.932;8.308;2023-05-10T14:29:36;2.90;;;1.70;;
12556;SDS011;6344;49.932;8.308;2023-05-10T14:32:03;2.07;;;1.70;;
12556;SDS011;6344;49.932;8.308;2023-05-10T14:34:29;2.23;;;1.60;;
12556;SDS011;6344;49.932;8.308;2023-05-10T14:36:56;2.53;;;1.70;;
12556;SDS011;6344;49.932;8.308;2023-05-10T14:39:23;2.30;;;1.70;;
12556;SDS011;6344;49.932;8.308;2023-05-10T14:41:50;3.07;;;1.80;;
12556;SDS011;6344;49.932;8.308;2023-05-10T14:44:17;1.80;;;1.60;;
12556;SDS011;6344;49.932;8.308;2023-05-10T14:46:45;4.80;;;1.77;;
12556;SDS011;6344;49.932;8.308;2023-05-10T14:49:13;5.30;;;1.93;;
12556;SDS011;6344;49.932;8.308;2023-05-10T14:51:40;2.13;;;1.60;;
12556;SDS011;6344;49.932;8.308;2023-05-10T14:54:06;3.00;;;2.20;;
12556;SDS011;6344;49.932;8.308;2023-05-10T14:56:33;2.10;;;1.90;;
12556;SDS011;6344;49.932;8.308;2023-05-10T14:58:59;3.63;;;2.50;;
12556;SDS011;6344;49.932;8.308;2023-05-10T15:01:26;2.47;;;1.90;;
12556;SDS011;6344;49.932;8.308;2023-05-10T15:03:54;1.80;;;1.70;;
12556;SDS011;6344;49.932;8.308;2023-05-10T15:06:22;2.43;;;1.50;;
12556;SDS011;6344;49.932;8.308;2023-05-10T15:08:49;2.67;;;1.83;;
12556;SDS011;6344;49.932;8.308;2023-05-10T15:18:00;2.43;;;1.73;;
12556;SDS011;6344;49.932;8.308;2023-05-10T15:20:28;1.80;;;1.70;;
12556;SDS011;6344;49.932;8.308;2023-05-10T15:22:54;2.33;;;1.80;;
12556;SDS011;6344;49.932;8.308;2023-05-10T15:25:21;4.80;;;2.10;;